createdAt,value
2022-12-25T00:01:56.601Z,11.85
2022-12-25T00:04:24.501Z,11.90
2022-12-25T00:06:52.253Z,13.05
2022-12-25T00:09:20.103Z,13.27
2022-12-25T00:11:48.096Z,9.25
2022-12-25T00:14:15.768Z,11.38
2022-12-25T00:16:43.389Z,9.20
2022-12-25T00:19:11.442Z,10.60
2022-12-25T00:21:39.047Z,9.40
2022-12-25T00:24:07.127Z,6.78
2022-12-25T00:26:35.086Z,8.55
2022-12-25T00:29:02.613Z,7.93
2022-12-25T00:31:30.332Z,11.63
2022-12-25T00:33:58.216Z,10.52
2022-12-25T00:36:25.856Z,11.85
2022-12-25T00:38:53.502Z,12.70
2022-12-25T00:41:42.115Z,13.15
2022-12-25T00:44:12.522Z,12.75
2022-12-25T00:46:41.811Z,12.10
2022-12-25T00:49:10.274Z,10.70
2022-12-25T00:51:38.459Z,12.55
2022-12-25T00:54:06.595Z,20.00
2022-12-25T00:56:34.956Z,19.87
2022-12-25T00:59:02.582Z,20.70
2022-12-25T01:01:30.719Z,18.05
2022-12-25T01:03:58.977Z,16.40
2022-12-25T01:06:26.794Z,13.05
2022-12-25T01:09:18.061Z,14.10
2022-12-25T01:11:46.102Z,15.03
2022-12-25T01:14:14.478Z,14.10
2022-12-25T01:16:42.125Z,13.25
2022-12-25T01:19:11.727Z,15.32
2022-12-25T01:21:39.637Z,16.52
2022-12-25T01:24:07.395Z,15.50
2022-12-25T01:26:34.951Z,14.57
2022-12-25T01:29:03.123Z,15.55
2022-12-25T01:31:30.764Z,15.38
2022-12-25T01:33:58.451Z,15.32
2022-12-25T01:36:26.836Z,14.05
2022-12-25T01:38:55.094Z,13.07
2022-12-25T01:41:24.483Z,13.30
2022-12-25T01:44:03.334Z,13.68
2022-12-25T01:46:31.968Z,13.45
2022-12-25T01:49:22.956Z,10.77
2022-12-25T01:51:58.450Z,10.93
2022-12-25T01:54:36.645Z,8.63
2022-12-25T01:57:08.831Z,8.32
2022-12-25T01:59:37.303Z,9.27
2022-12-25T02:02:05.587Z,10.18
2022-12-25T02:04:40.397Z,10.05
2022-12-25T02:07:16.646Z,10.45
2022-12-25T02:09:46.869Z,8.73
2022-12-25T02:12:30.959Z,8.15
2022-12-25T02:15:05.789Z,7.45
2022-12-25T02:17:39.851Z,8.55
2022-12-25T02:20:37.823Z,9.60
2022-12-25T02:23:49.637Z,9.13
2022-12-25T02:26:38.556Z,9.60
2022-12-25T02:29:30.721Z,9.60
2022-12-25T02:32:05.809Z,8.63
2022-12-25T02:34:45.282Z,7.25
2022-12-25T02:37:19.972Z,8.30
2022-12-25T02:39:59.412Z,8.15
2022-12-25T02:43:17.354Z,7.28
2022-12-25T02:46:15.752Z,7.05
2022-12-25T02:49:07.278Z,7.55
2022-12-25T02:51:58.890Z,6.57
2022-12-25T02:57:44.973Z,6.62
2022-12-25T03:00:33.027Z,6.95
2022-12-25T03:03:22.008Z,6.72
2022-12-25T03:06:09.306Z,6.70
2022-12-25T03:08:44.110Z,7.10
2022-12-25T03:11:31.516Z,5.68
2022-12-25T03:14:23.327Z,6.60
2022-12-25T03:16:55.338Z,7.37
2022-12-25T03:20:04.444Z,7.47
2022-12-25T03:22:51.637Z,7.32
2022-12-25T03:25:38.677Z,7.35
2022-12-25T03:28:06.963Z,8.07
2022-12-25T03:31:13.989Z,8.38
2022-12-25T03:34:12.454Z,8.90
2022-12-25T03:37:32.970Z,8.48
2022-12-25T03:40:45.360Z,8.38
2022-12-25T03:57:28.373Z,7.35
2022-12-25T04:00:15.275Z,7.70
2022-12-25T04:03:02.018Z,8.65
2022-12-25T04:05:48.593Z,7.65
2022-12-25T04:08:35.401Z,5.82
2022-12-25T04:11:22.078Z,5.45
2022-12-25T04:14:08.481Z,6.30
2022-12-25T04:16:54.678Z,6.60
2022-12-25T04:19:41.147Z,6.05
2022-12-25T04:22:27.270Z,5.82
2022-12-25T04:25:13.865Z,5.03
2022-12-25T04:27:59.974Z,6.40
2022-12-25T04:30:46.508Z,5.72
2022-12-25T04:33:33.004Z,6.80
2022-12-25T04:36:09.791Z,7.45
2022-12-25T04:38:38.168Z,6.00
2022-12-25T04:41:08.446Z,6.00
2022-12-25T04:43:36.017Z,6.72
2022-12-25T04:46:05.128Z,6.53
2022-12-25T04:48:35.684Z,6.12
2022-12-25T04:51:18.028Z,6.00
2022-12-25T04:53:47.263Z,6.47
2022-12-25T04:56:15.317Z,5.60
2022-12-25T04:58:43.330Z,5.25
2022-12-25T05:01:12.333Z,6.25
2022-12-25T05:03:40.181Z,6.45
2022-12-25T05:06:08.127Z,5.60
2022-12-25T05:08:37.035Z,5.35
2022-12-25T05:11:09.848Z,5.82
2022-12-25T05:13:38.847Z,6.35
2022-12-25T05:16:16.519Z,7.20
2022-12-25T05:18:44.607Z,6.53
2022-12-25T05:21:12.744Z,6.60
2022-12-25T05:23:48.532Z,7.53
2022-12-25T05:26:19.617Z,7.70
2022-12-25T05:28:47.694Z,5.82
2022-12-25T05:31:15.402Z,9.73
2022-12-25T05:33:43.427Z,5.60
2022-12-25T05:36:12.942Z,4.18
2022-12-25T05:38:40.525Z,4.70
2022-12-25T05:41:08.458Z,4.20
2022-12-25T05:43:35.992Z,4.75
2022-12-25T05:46:08.596Z,7.50
2022-12-25T05:48:37.968Z,9.30
2022-12-25T05:51:07.730Z,8.63
2022-12-25T05:53:35.525Z,5.18
2022-12-25T05:56:05.821Z,7.68
2022-12-25T05:58:35.301Z,7.32
2022-12-25T06:01:03.277Z,11.10
2022-12-25T06:03:31.579Z,11.45
2022-12-25T06:05:59.220Z,5.22
2022-12-25T06:08:26.819Z,4.87
2022-12-25T06:10:54.701Z,5.10
2022-12-25T06:13:22.267Z,5.12
2022-12-25T06:15:49.899Z,4.72
2022-12-25T06:18:17.771Z,8.15
2022-12-25T06:20:45.443Z,14.20
2022-12-25T06:23:13.151Z,14.10
2022-12-25T06:25:41.098Z,14.98
2022-12-25T06:28:08.988Z,14.45
2022-12-25T06:30:36.552Z,11.75
2022-12-25T06:33:04.449Z,10.55
2022-12-25T06:35:32.002Z,9.18
2022-12-25T06:38:00.481Z,10.05
2022-12-25T06:40:28.409Z,9.30
2022-12-25T06:42:55.922Z,9.10
2022-12-25T06:45:23.564Z,8.30
2022-12-25T06:47:51.713Z,38.38
2022-12-25T06:50:19.334Z,29.83
2022-12-25T06:52:46.908Z,24.05
2022-12-25T06:55:14.782Z,20.83
2022-12-25T06:57:42.385Z,20.30
2022-12-25T07:00:10.418Z,17.80
2022-12-25T07:02:38.837Z,13.00
2022-12-25T07:05:06.781Z,13.02
2022-12-25T07:07:34.499Z,17.17
2022-12-25T07:10:02.373Z,15.75
2022-12-25T07:12:30.068Z,11.15
2022-12-25T07:15:02.400Z,14.93
2022-12-25T07:17:30.341Z,15.18
2022-12-25T07:19:57.908Z,12.05
2022-12-25T07:22:25.630Z,9.10
2022-12-25T07:24:53.450Z,8.85
2022-12-25T07:27:21.050Z,10.27
2022-12-25T07:29:49.099Z,15.50
2022-12-25T07:32:17.084Z,22.80
2022-12-25T07:34:44.971Z,20.95
2022-12-25T07:37:13.135Z,15.02
2022-12-25T07:39:41.075Z,10.98
2022-12-25T07:42:08.846Z,9.65
2022-12-25T07:44:36.385Z,9.20
2022-12-25T07:47:04.321Z,7.90
2022-12-25T07:49:32.031Z,7.70
2022-12-25T07:51:59.583Z,7.47
2022-12-25T07:54:27.398Z,8.43
2022-12-25T07:56:54.956Z,7.45
2022-12-25T07:59:22.526Z,9.70
2022-12-25T08:01:51.059Z,38.58
2022-12-25T08:04:19.257Z,13.40
2022-12-25T08:06:46.891Z,19.25
2022-12-25T08:09:14.494Z,17.23
2022-12-25T08:11:46.860Z,13.27
2022-12-25T08:14:14.854Z,20.58
2022-12-25T08:16:42.777Z,14.23
2022-12-25T08:19:11.264Z,8.95
2022-12-25T08:21:38.989Z,10.30
2022-12-25T08:24:07.074Z,11.45
2022-12-25T08:26:34.695Z,11.23
2022-12-25T08:29:02.429Z,13.35
2022-12-25T08:31:31.368Z,14.45
2022-12-25T08:33:59.078Z,8.73
2022-12-25T08:36:27.188Z,10.70
2022-12-25T08:39:02.174Z,9.68
2022-12-25T08:41:31.651Z,9.95
2022-12-25T08:43:59.507Z,9.27
2022-12-25T08:46:27.063Z,8.32
2022-12-25T08:48:56.733Z,8.23
2022-12-25T08:51:26.206Z,8.27
2022-12-25T08:53:59.053Z,8.40
2022-12-25T08:56:27.096Z,7.28
2022-12-25T08:58:54.769Z,8.18
2022-12-25T09:01:22.409Z,7.90
2022-12-25T09:03:50.559Z,8.55
2022-12-25T09:06:18.273Z,8.20
2022-12-25T09:08:49.050Z,7.75
2022-12-25T09:11:19.950Z,7.68
2022-12-25T09:13:48.974Z,8.40
2022-12-25T09:16:21.023Z,8.52
2022-12-25T09:18:48.936Z,7.47
2022-12-25T09:21:17.485Z,7.55
2022-12-25T09:23:45.369Z,7.30
2022-12-25T09:26:15.251Z,7.43
2022-12-25T09:28:50.305Z,9.52
2022-12-25T09:31:19.134Z,10.43
2022-12-25T09:33:47.468Z,8.93
2022-12-25T09:36:15.227Z,9.23
2022-12-25T09:38:43.047Z,8.75
2022-12-25T09:41:32.114Z,9.75
2022-12-25T09:44:12.562Z,9.05
2022-12-25T09:47:08.450Z,8.65
2022-12-25T09:50:00.385Z,8.70
2022-12-25T09:52:46.303Z,8.32
2022-12-25T09:55:20.459Z,8.55
2022-12-25T09:57:58.721Z,10.73
2022-12-25T10:00:36.059Z,10.32
2022-12-25T10:03:10.599Z,11.15
2022-12-25T10:05:44.075Z,10.50
2022-12-25T10:08:41.004Z,10.43
2022-12-25T10:11:26.518Z,8.82
2022-12-25T10:14:07.330Z,8.55
2022-12-25T10:16:57.119Z,7.80
2022-12-25T10:19:34.066Z,8.82
2022-12-25T10:22:09.434Z,11.07
2022-12-25T10:24:43.829Z,12.23
2022-12-25T10:27:32.145Z,12.68
2022-12-25T10:30:01.845Z,11.10
2022-12-25T10:32:30.042Z,12.25
2022-12-25T10:34:57.613Z,14.95
2022-12-25T10:37:25.475Z,11.52
2022-12-25T10:39:53.175Z,13.77
2022-12-25T10:42:34.714Z,11.48
2022-12-25T10:45:09.134Z,10.77
2022-12-25T10:47:42.659Z,10.88
2022-12-25T10:50:24.823Z,11.12
2022-12-25T10:53:00.910Z,12.02
2022-12-25T10:55:29.862Z,10.90
2022-12-25T10:57:59.165Z,14.45
2022-12-25T11:00:32.215Z,11.68
2022-12-25T11:03:00.807Z,13.52
2022-12-25T11:05:31.319Z,13.48
2022-12-25T11:08:01.262Z,14.02
2022-12-25T11:10:34.208Z,14.43
2022-12-25T11:13:02.917Z,15.98
2022-12-25T11:15:44.584Z,12.30
2022-12-25T11:18:35.597Z,16.23
2022-12-25T11:21:16.515Z,12.25
2022-12-25T11:23:50.218Z,16.10
2022-12-25T11:26:18.705Z,15.48
2022-12-25T11:28:48.822Z,14.23
2022-12-25T11:31:19.728Z,13.55
2022-12-25T11:36:43.746Z,13.80
2022-12-25T11:39:21.836Z,12.20
2022-12-25T11:41:53.891Z,13.57
2022-12-25T11:44:36.713Z,12.40
2022-12-25T11:47:15.085Z,17.77
2022-12-25T11:49:51.512Z,21.83
2022-12-25T11:52:22.718Z,38.20
2022-12-25T11:55:02.923Z,29.73
2022-12-25T11:57:33.022Z,14.50
2022-12-25T12:00:09.506Z,17.98
2022-12-25T12:02:48.881Z,18.30
2022-12-25T12:05:21.606Z,20.25
2022-12-25T12:07:55.796Z,20.27
2022-12-25T12:10:32.858Z,18.37
2022-12-25T12:13:23.691Z,16.30
2022-12-25T12:15:51.698Z,14.07
2022-12-25T12:18:23.433Z,13.15
2022-12-25T12:21:03.319Z,13.62
2022-12-25T12:23:54.408Z,14.02
2022-12-25T12:26:24.869Z,16.10
2022-12-25T12:28:57.298Z,17.42
2022-12-25T12:31:36.419Z,15.90
2022-12-25T12:34:05.127Z,15.00
2022-12-25T12:36:36.960Z,16.55
2022-12-25T12:39:06.073Z,14.82
2022-12-25T12:41:52.860Z,15.23
2022-12-25T12:44:25.441Z,18.50
2022-12-25T12:46:55.949Z,22.58
2022-12-25T12:49:32.939Z,20.45
2022-12-25T12:52:24.836Z,16.98
2022-12-25T12:54:59.899Z,18.80
2022-12-25T12:57:34.483Z,14.95
2022-12-25T13:00:09.858Z,16.12
2022-12-25T13:02:50.067Z,18.85
2022-12-25T13:05:42.169Z,19.65
2022-12-25T13:08:33.400Z,18.83
2022-12-25T13:11:20.378Z,17.52
2022-12-25T13:13:50.876Z,16.50
2022-12-25T13:16:24.558Z,17.70
2022-12-25T13:18:53.985Z,19.05
2022-12-25T13:21:28.408Z,17.67
2022-12-25T13:23:58.589Z,18.37
2022-12-25T13:26:27.542Z,17.52
2022-12-25T13:28:56.262Z,19.70
2022-12-25T13:31:29.283Z,20.05
2022-12-25T13:34:05.696Z,18.60
2022-12-25T13:36:38.450Z,17.08
2022-12-25T13:39:16.765Z,16.67
2022-12-25T13:42:06.252Z,18.02
2022-12-25T13:44:40.127Z,19.83
2022-12-25T13:47:19.079Z,22.48
2022-12-25T13:49:48.435Z,23.95
2022-12-25T13:52:21.634Z,24.60
2022-12-25T13:55:03.928Z,23.90
2022-12-25T13:57:36.869Z,23.58
2022-12-25T14:00:07.183Z,23.02
2022-12-25T14:02:38.290Z,22.00
2022-12-25T14:05:22.840Z,21.52
2022-12-25T14:07:55.605Z,22.08
2022-12-25T14:10:26.134Z,24.67
2022-12-25T14:12:58.359Z,28.75
2022-12-25T14:15:30.430Z,23.85
2022-12-25T14:17:59.443Z,20.50
2022-12-25T14:20:30.155Z,19.92
2022-12-25T14:23:00.777Z,18.05
2022-12-25T14:25:43.093Z,17.08
2022-12-25T14:28:20.646Z,17.37
2022-12-25T14:30:48.560Z,15.98
2022-12-25T14:33:21.165Z,16.62
2022-12-25T14:35:50.123Z,17.62
2022-12-25T14:38:28.191Z,17.15
2022-12-25T14:41:05.110Z,16.08
2022-12-25T14:43:34.658Z,21.58
2022-12-25T14:46:06.520Z,22.87
2022-12-25T14:48:34.970Z,18.08
2022-12-25T14:51:07.503Z,16.87
2022-12-25T14:53:38.082Z,20.80
2022-12-25T14:56:08.453Z,29.65
2022-12-25T14:58:42.895Z,20.10
2022-12-25T15:01:33.685Z,23.95
2022-12-25T15:04:10.483Z,24.50
2022-12-25T15:06:56.628Z,24.50
2022-12-25T15:09:24.545Z,28.52
2022-12-25T15:11:55.544Z,26.10
2022-12-25T15:14:24.455Z,24.80
2022-12-25T15:16:55.659Z,27.35
2022-12-25T15:19:34.802Z,27.77
2022-12-25T15:22:05.616Z,26.45
2022-12-25T15:24:33.329Z,26.00
2022-12-25T15:27:01.619Z,24.95
2022-12-25T15:30:07.953Z,22.95
2022-12-25T15:32:22.571Z,24.12
2022-12-25T15:34:51.325Z,24.08
2022-12-25T15:37:19.006Z,21.48
2022-12-25T15:39:46.659Z,21.85
2022-12-25T15:42:18.017Z,21.73
2022-12-25T15:44:46.499Z,22.58
2022-12-25T15:47:16.800Z,25.55
2022-12-25T15:49:44.393Z,26.25
2022-12-25T15:52:14.227Z,24.98
2022-12-25T15:54:42.576Z,31.35
2022-12-25T15:57:18.060Z,27.33
2022-12-25T15:59:46.231Z,38.22
2022-12-25T16:02:19.492Z,28.67
2022-12-25T16:04:47.697Z,41.55
2022-12-25T16:07:20.612Z,37.53
2022-12-25T16:09:48.660Z,47.08
2022-12-25T16:12:16.393Z,49.85
2022-12-25T16:14:43.965Z,40.50
2022-12-25T16:17:14.904Z,35.42
2022-12-25T16:19:44.706Z,29.30
2022-12-25T16:22:14.398Z,34.03
2022-12-25T16:24:42.262Z,43.55
2022-12-25T16:27:09.821Z,37.72
2022-12-25T16:29:37.761Z,39.92
2022-12-25T16:32:05.299Z,42.30
2022-12-25T16:34:32.817Z,32.83
2022-12-25T16:37:00.659Z,33.42
2022-12-25T16:39:28.914Z,39.03
2022-12-25T16:41:56.821Z,39.45
2022-12-25T16:44:24.739Z,38.10
2022-12-25T16:46:52.237Z,39.90
2022-12-25T16:49:19.884Z,34.33
2022-12-25T16:51:47.705Z,36.38
2022-12-25T16:54:15.323Z,35.80
2022-12-25T16:56:42.903Z,35.20
2022-12-25T16:59:10.956Z,36.35
2022-12-25T17:01:43.189Z,32.90
2022-12-25T17:04:14.212Z,32.25
2022-12-25T17:06:41.896Z,37.30
2022-12-25T17:09:10.721Z,33.20
2022-12-25T17:11:38.704Z,43.13
2022-12-25T17:14:06.763Z,44.97
2022-12-25T17:16:36.564Z,51.72
2022-12-25T17:19:09.660Z,47.38
2022-12-25T17:21:38.489Z,67.87
2022-12-25T17:24:07.226Z,51.20
2022-12-25T17:26:34.853Z,41.33
2022-12-25T17:29:02.499Z,36.90
2022-12-25T17:31:30.636Z,39.58
2022-12-25T17:34:00.744Z,35.05
2022-12-25T17:36:28.788Z,27.55
2022-12-25T17:38:59.701Z,25.20
2022-12-25T17:41:27.589Z,23.55
2022-12-25T17:43:55.106Z,22.67
2022-12-25T17:46:28.368Z,28.23
2022-12-25T17:48:57.780Z,27.35
2022-12-25T17:51:27.842Z,34.88
2022-12-25T17:53:58.911Z,40.00
2022-12-25T17:58:56.879Z,31.37
2022-12-25T18:01:26.182Z,34.53
2022-12-25T18:03:55.102Z,32.58
2022-12-25T18:06:25.263Z,36.65
2022-12-25T18:08:54.445Z,42.10
2022-12-25T18:11:33.096Z,39.60
2022-12-25T18:14:04.320Z,36.03
2022-12-25T18:19:01.472Z,27.25
2022-12-25T18:21:29.500Z,31.65
2022-12-25T18:23:57.852Z,31.08
2022-12-25T18:26:26.078Z,29.55
2022-12-25T18:28:53.964Z,32.90
2022-12-25T18:31:24.282Z,32.78
2022-12-25T18:33:52.657Z,28.85
2022-12-25T18:36:23.372Z,36.30
2022-12-25T18:38:53.679Z,32.53
2022-12-25T18:41:22.558Z,37.55
2022-12-25T18:43:53.122Z,33.65
2022-12-25T18:46:25.576Z,39.25
2022-12-25T18:48:56.588Z,29.63
2022-12-25T18:51:26.653Z,29.60
2022-12-25T18:53:57.377Z,28.23
2022-12-25T18:56:25.230Z,28.23
2022-12-25T18:58:52.760Z,22.85
2022-12-25T19:01:23.704Z,23.48
2022-12-25T19:06:26.934Z,19.08
2022-12-25T19:08:56.354Z,20.85
2022-12-25T19:11:23.969Z,20.15
2022-12-25T19:13:51.636Z,20.85
2022-12-25T19:16:19.571Z,23.55
2022-12-25T19:18:47.205Z,22.77
2022-12-25T19:21:16.014Z,22.48
2022-12-25T19:23:44.152Z,20.48
2022-12-25T19:26:12.207Z,17.27
2022-12-25T19:28:39.997Z,13.60
2022-12-25T19:31:09.142Z,13.65
2022-12-25T19:33:41.795Z,15.07
2022-12-25T19:36:13.104Z,12.80
2022-12-25T19:38:41.279Z,13.80
2022-12-25T19:41:12.353Z,19.12
2022-12-25T19:43:41.762Z,15.75
2022-12-25T19:46:22.404Z,15.77
2022-12-25T19:48:50.325Z,15.40
2022-12-25T19:51:21.818Z,14.32
2022-12-25T19:53:50.021Z,12.82
2022-12-25T19:56:18.171Z,13.75
2022-12-25T19:58:47.192Z,14.77
2022-12-25T20:01:18.923Z,16.10
2022-12-25T20:03:48.490Z,15.90
2022-12-25T20:06:26.131Z,14.68
2022-12-25T20:08:57.007Z,14.05
2022-12-25T20:11:28.287Z,14.02
2022-12-25T20:13:57.103Z,14.40
2022-12-25T20:16:25.663Z,14.35
2022-12-25T20:18:53.578Z,14.52
2022-12-25T20:21:23.144Z,13.18
2022-12-25T20:23:52.476Z,14.15
2022-12-25T20:26:24.675Z,12.90
2022-12-25T20:28:52.855Z,14.38
2022-12-25T20:31:30.681Z,14.45
2022-12-25T20:34:01.449Z,15.52
2022-12-25T20:36:36.126Z,12.25
2022-12-25T20:39:08.642Z,12.85
2022-12-25T20:41:36.804Z,15.20
2022-12-25T20:44:06.461Z,15.00
2022-12-25T20:46:34.771Z,19.70
2022-12-25T20:49:03.011Z,17.50
2022-12-25T20:51:30.891Z,19.80
2022-12-25T20:53:58.829Z,17.25
2022-12-25T20:56:29.000Z,11.20
2022-12-25T20:58:59.049Z,13.43
2022-12-25T21:01:29.562Z,14.20
2022-12-25T21:03:58.489Z,14.73
2022-12-25T21:06:26.251Z,13.20
2022-12-25T21:08:54.227Z,13.95
2022-12-25T21:11:22.058Z,12.48
2022-12-25T21:13:50.246Z,13.50
2022-12-25T21:16:22.358Z,14.07
2022-12-25T21:18:53.136Z,14.43
2022-12-25T21:21:21.821Z,17.95
2022-12-25T21:23:49.407Z,13.60
2022-12-25T21:26:25.647Z,14.80
2022-12-25T21:28:57.269Z,16.98
2022-12-25T21:31:25.216Z,13.85
2022-12-25T21:33:55.104Z,14.63
2022-12-25T21:36:27.397Z,18.70
2022-12-25T21:39:05.482Z,19.75
2022-12-25T21:41:34.803Z,17.25
2022-12-25T21:44:02.647Z,17.00
2022-12-25T21:46:30.356Z,18.62
2022-12-25T21:48:59.133Z,17.12
2022-12-25T21:51:48.376Z,16.62
2022-12-25T21:54:17.508Z,13.88
2022-12-25T21:56:47.237Z,16.85
2022-12-25T21:59:17.982Z,15.07
2022-12-25T22:01:46.984Z,18.17
2022-12-25T22:04:16.382Z,16.67
2022-12-25T22:07:04.302Z,14.23
2022-12-25T22:09:32.315Z,15.20
2022-12-25T22:12:18.747Z,16.73
2022-12-25T22:14:55.824Z,16.20
2022-12-25T22:17:46.229Z,17.65
2022-12-25T22:20:22.373Z,14.48
2022-12-25T22:22:50.117Z,14.48
2022-12-25T22:25:19.059Z,15.32
2022-12-25T22:27:47.836Z,15.32
2022-12-25T22:30:21.232Z,17.00
2022-12-25T22:32:49.794Z,16.95
2022-12-25T22:35:18.103Z,14.52
2022-12-25T22:37:46.501Z,15.20
2022-12-25T22:40:16.694Z,17.73
2022-12-25T22:42:44.456Z,15.35
2022-12-25T22:45:16.447Z,17.58
2022-12-25T22:47:44.255Z,17.10
2022-12-25T22:50:14.736Z,14.52
2022-12-25T22:52:43.134Z,16.55
2022-12-25T22:55:11.177Z,15.40
2022-12-25T22:57:38.768Z,15.77
2022-12-25T23:00:08.908Z,15.65
2022-12-25T23:02:36.920Z,14.95
2022-12-25T23:05:04.964Z,14.38
2022-12-25T23:07:32.511Z,15.02
2022-12-25T23:10:00.543Z,14.38
2022-12-25T23:12:46.892Z,16.55
2022-12-25T23:15:14.761Z,14.68
2022-12-25T23:18:01.389Z,15.25
2022-12-25T23:20:47.996Z,15.20
2022-12-25T23:23:35.471Z,13.52
2022-12-25T23:26:09.803Z,16.60
2022-12-25T23:28:59.376Z,15.77
2022-12-25T23:31:35.361Z,15.50
2022-12-25T23:34:05.244Z,14.60
2022-12-25T23:36:34.133Z,15.85
2022-12-25T23:39:08.996Z,15.63
2022-12-25T23:41:39.690Z,17.92
2022-12-25T23:44:07.766Z,15.00
2022-12-25T23:46:35.779Z,14.90
2022-12-25T23:49:04.007Z,15.45
2022-12-25T23:51:31.835Z,14.50
2022-12-25T23:53:59.451Z,15.40
2022-12-25T23:56:27.345Z,17.27
2022-12-25T23:58:55.018Z,15.05
